Time;durP1;ratioP1;P1;durP2;ratioP2;P2;SDS_P1;SDS_P2;PMS_P1;PMS_P2;Temp;Humidity;BMP_temperature;BMP_pressure;BME280_temperature;BME280_humidity;BME280_pressure;Samples;Min_cycle;Max_cycle;Signal;HPM_P1;HPM_P2
2022/04/01 00:00:16;;;;;;;32.55;9.15;;;;;;;15.97;55.30;98847.41;5068160;28;20021;-77
2022/04/01 00:02:41;;;;;;;23.45;7.20;;;;;;;15.97;55.38;98848.25;5050503;28;20072;-75
2022/04/01 00:05:07;;;;;;;25.25;7.38;;;;;;;16.00;55.30;98829.56;5040551;28;20485;-76
2022/04/01 00:07:34;;;;;;;34.88;8.65;;;;;;;15.99;55.19;98837.56;5052422;28;20033;-76
2022/04/01 00:10:00;;;;;;;40.15;7.75;;;;;;;16.03;55.04;98855.88;5048939;28;20071;-77
2022/04/01 00:13:12;;;;;;;34.60;8.70;;;;;;;16.02;55.32;98853.31;5044092;28;20092;-76
2022/04/01 00:16:04;;;;;;;36.95;8.73;;;;;;;15.98;55.49;98851.75;5051367;28;20041;-76
2022/04/01 00:22:22;;;;;;;27.20;9.57;;;;;;;16.01;55.21;98847.19;5065065;28;20239;-76
2022/04/01 00:28:10;;;;;;;24.80;7.32;;;;;;;16.04;55.46;98848.81;5064696;28;20568;-76
2022/04/01 00:30:39;;;;;;;17.45;5.65;;;;;;;16.01;55.48;98846.28;5057641;28;20119;-76
2022/04/01 00:33:05;;;;;;;34.10;8.10;;;;;;;15.98;55.42;98854.38;5052364;28;20464;-77
2022/04/01 00:35:32;;;;;;;24.77;8.00;;;;;;;15.95;55.42;98846.59;5053751;28;20132;-77
2022/04/01 00:38:35;;;;;;;29.98;7.47;;;;;;;16.11;55.37;98852.88;5040387;28;20132;-77
2022/04/01 00:44:55;;;;;;;30.67;6.65;;;;;;;16.00;55.73;98852.53;5050888;28;20044;-76
2022/04/01 00:47:21;;;;;;;14.38;5.72;;;;;;;15.88;55.77;98843.38;5048188;28;20531;-76
2022/04/01 00:50:07;;;;;;;29.20;6.57;;;;;;;15.97;55.98;98850.91;5048694;28;20067;-76
2022/04/01 00:52:33;;;;;;;31.45;7.72;;;;;;;15.93;55.80;98837.88;5013945;28;20046;-75
2022/04/01 00:54:59;;;;;;;25.95;7.35;;;;;;;15.85;56.07;98840.91;5042160;28;20041;-75
2022/04/01 00:57:26;;;;;;;20.05;5.50;;;;;;;15.94;56.13;98848.38;5017539;28;20123;-75
2022/04/01 01:00:36;;;;;;;30.50;7.00;;;;;;;15.91;56.15;98837.94;5030613;28;20054;-76
2022/04/01 01:03:03;;;;;;;38.83;6.53;;;;;;;15.89;56.08;98833.66;5029389;28;20092;-76
2022/04/01 01:05:30;;;;;;;28.50;7.03;;;;;;;15.96;56.33;98846.50;5031221;28;20050;-76
2022/04/01 01:07:57;;;;;;;30.63;7.47;;;;;;;15.90;56.31;98843.31;5032906;28;20038;-76
2022/04/01 01:10:23;;;;;;;19.10;6.63;;;;;;;15.80;56.76;98830.53;4995003;28;20036;-76
2022/04/01 01:12:49;;;;;;;19.25;7.35;;;;;;;15.86;56.59;98841.75;5037659;28;20123;-76
2022/04/01 01:15:18;;;;;;;28.35;8.18;;;;;;;15.90;56.62;98851.25;5052719;28;20053;-75
2022/04/01 01:20:55;;;;;;;28.05;6.50;;;;;;;16.01;56.59;98847.19;5028671;28;20372;-75
2022/04/01 01:23:29;;;;;;;26.13;8.13;;;;;;;15.97;56.80;98850.91;5037332;28;20049;-75
2022/04/01 01:29:25;;;;;;;20.10;5.97;;;;;;;16.04;56.57;98839.09;5032079;28;20044;-74
2022/04/01 01:31:52;;;;;;;31.30;5.93;;;;;;;15.97;56.43;98837.66;5016916;28;20456;-75
2022/04/01 01:34:17;;;;;;;28.98;7.43;;;;;;;16.01;56.56;98833.94;5038256;28;20045;-75
2022/04/01 01:36:43;;;;;;;28.73;6.95;;;;;;;16.01;56.43;98827.78;5007032;28;20374;-76
2022/04/01 01:39:09;;;;;;;21.95;7.25;;;;;;;16.03;56.27;98826.78;5043935;28;20108;-75
2022/04/01 01:41:34;;;;;;;23.17;6.53;;;;;;;16.08;56.19;98821.25;5037346;28;20040;-75
2022/04/01 01:44:21;;;;;;;60.65;7.90;;;;;;;16.13;56.06;98834.25;5035241;28;20099;-75
2022/04/01 01:55:49;;;;;;;20.98;5.95;;;;;;;16.23;55.83;98847.00;5024343;28;20111;-76
2022/04/01 01:58:15;;;;;;;28.80;7.20;;;;;;;16.20;55.73;98833.91;5023848;28;20478;-75
2022/04/01 02:04:38;;;;;;;23.98;6.40;;;;;;;16.23;56.22;98827.63;5042744;28;20134;-77
2022/04/01 02:07:05;;;;;;;36.08;7.97;;;;;;;16.17;57.43;98815.53;5045071;28;20492;-76
2022/04/01 02:09:31;;;;;;;36.17;7.20;;;;;;;16.19;56.44;98824.25;5016873;28;20532;-76
2022/04/01 02:16:07;;;;;;;23.85;8.02;;;;;;;16.17;56.44;98815.53;5042821;28;20461;-76
2022/04/01 02:18:33;;;;;;;41.33;7.85;;;;;;;16.15;55.75;98805.94;5032220;28;20076;-77
2022/04/01 02:20:58;;;;;;;37.53;7.78;;;;;;;16.12;55.97;98819.34;5046533;28;20489;-76
2022/04/01 02:23:24;;;;;;;19.05;5.85;;;;;;;16.03;55.99;98802.97;5067210;28;20044;-76
2022/04/01 02:25:50;;;;;;;24.02;6.88;;;;;;;16.00;56.18;98797.81;5064465;28;20075;-76
2022/04/01 02:28:17;;;;;;;19.33;6.90;;;;;;;16.18;55.84;98803.16;5057508;28;20032;-76
2022/04/01 02:30:42;;;;;;;26.40;7.07;;;;;;;15.99;56.14;98804.06;5053929;28;20024;-74
2022/04/01 02:33:09;;;;;;;17.75;6.05;;;;;;;15.93;56.18;98799.06;5011032;28;20046;-75
2022/04/01 02:39:27;;;;;;;26.50;6.80;;;;;;;15.87;56.67;98811.72;5029124;28;20040;-75
2022/04/01 02:41:53;;;;;;;27.95;6.60;;;;;;;15.85;56.75;98801.22;5010629;28;20049;-75
2022/04/01 02:44:19;;;;;;;21.55;5.75;;;;;;;15.83;56.91;98798.63;5021389;28;20045;-75
2022/04/01 02:46:45;;;;;;;26.30;7.22;;;;;;;15.78;56.73;98783.91;5030231;28;20041;-76
2022/04/01 02:49:15;;;;;;;22.20;5.63;;;;;;;15.85;57.02;98784.47;5025802;28;20491;-75
2022/04/01 02:51:42;;;;;;;38.58;6.53;;;;;;;15.76;56.98;98780.50;5032997;28;20032;-75
2022/04/01 02:54:09;;;;;;;23.15;7.65;;;;;;;15.77;57.07;98772.47;5075613;28;20178;-76
2022/04/01 02:56:36;;;;;;;29.20;6.35;;;;;;;15.69;57.16;98769.31;5069932;28;20056;-75
2022/04/01 02:59:06;;;;;;;28.20;6.53;;;;;;;15.84;56.85;98778.31;5056840;28;20112;-76
2022/04/01 03:01:33;;;;;;;33.05;6.30;;;;;;;15.78;57.02;98771.56;5052571;28;20037;-76
2022/04/01 03:04:09;;;;;;;19.25;4.97;;;;;;;15.66;57.25;98768.59;5062584;28;20050;-75
2022/04/01 03:06:44;;;;;;;17.50;6.00;;;;;;;15.62;57.42;98770.53;5042044;28;20047;-75
2022/04/01 03:09:10;;;;;;;27.80;8.43;;;;;;;15.66;57.50;98772.09;5048792;28;20132;-75
2022/04/01 03:11:37;;;;;;;33.63;6.30;;;;;;;15.69;57.30;98766.66;5050797;28;20037;-75
2022/04/01 03:14:04;;;;;;;30.65;7.50;;;;;;;15.62;57.58;98778.47;5046953;28;20052;-75
2022/04/01 03:16:30;;;;;;;23.80;7.28;;;;;;;15.56;57.77;98779.59;5047194;28;20052;-77
2022/04/01 03:18:59;;;;;;;19.25;6.53;;;;;;;15.60;57.63;98782.97;5048802;28;20082;-75
2022/04/01 03:21:25;;;;;;;26.63;7.50;;;;;;;15.56;57.54;98774.31;5051213;28;20029;-76
2022/04/01 03:23:52;;;;;;;29.42;8.13;;;;;;;15.62;57.48;98784.59;5047525;28;20044;-75
2022/04/01 03:26:20;;;;;;;20.23;7.10;;;;;;;15.56;57.79;98790.16;5050237;28;20067;-75
2022/04/01 03:32:07;;;;;;;21.17;6.47;;;;;;;15.56;57.81;98795.47;5046217;28;20143;-75
2022/04/01 03:34:33;;;;;;;17.20;6.55;;;;;;;15.50;57.86;98793.13;5045705;28;20053;-76
2022/04/01 03:36:58;;;;;;;26.65;8.23;;;;;;;15.50;57.91;98797.53;5045292;28;20029;-75
2022/04/01 03:42:55;;;;;;;32.03;6.65;;;;;;;15.43;58.11;98796.09;5045838;28;20040;-75
2022/04/01 03:45:34;;;;;;;29.77;7.57;;;;;;;15.34;58.16;98784.19;5025441;28;20041;-74
2022/04/01 03:48:06;;;;;;;23.45;7.88;;;;;;;15.26;58.70;98783.66;5024333;28;20045;-74
2022/04/01 03:50:34;;;;;;;24.00;7.88;;;;;;;15.22;58.89;98800.56;5043735;28;20048;-74
2022/04/01 03:53:07;;;;;;;24.90;7.35;;;;;;;15.16;59.10;98799.91;5050098;28;20080;-75
2022/04/01 03:55:35;;;;;;;29.30;7.50;;;;;;;15.17;59.00;98800.78;5052600;28;20060;-75
2022/04/01 03:58:08;;;;;;;17.90;6.90;;;;;;;15.19;59.00;98805.09;5048613;28;20083;-76
2022/04/01 04:00:35;;;;;;;49.40;7.88;;;;;;;15.18;59.26;98813.91;5050418;28;20033;-76
2022/04/01 04:03:07;;;;;;;28.23;7.28;;;;;;;15.11;59.60;98816.91;5054313;28;20037;-76
2022/04/01 04:05:38;;;;;;;33.63;8.32;;;;;;;15.07;59.52;98813.53;5052868;28;20086;-75
2022/04/01 04:08:05;;;;;;;28.30;8.77;;;;;;;15.11;59.39;98814.28;5046775;28;20045;-76
2022/04/01 04:10:34;;;;;;;22.58;7.35;;;;;;;15.08;59.58;98803.84;5049469;28;20147;-76
2022/04/01 04:13:37;;;;;;;21.35;7.15;;;;;;;15.27;58.92;98814.47;5050581;28;20522;-76
2022/04/01 04:16:38;;;;;;;34.20;8.85;;;;;;;15.19;59.04;98806.84;5053053;28;20029;-76
2022/04/01 04:19:26;;;;;;;24.70;8.02;;;;;;;15.10;59.36;98812.53;5024726;28;20158;-75
2022/04/01 04:22:03;;;;;;;23.25;7.28;;;;;;;15.28;58.86;98819.66;5048695;28;20029;-76
2022/04/01 04:24:36;;;;;;;36.00;8.70;;;;;;;15.32;58.55;98815.94;5056053;28;20028;-77
2022/04/01 04:27:12;;;;;;;30.75;10.32;;;;;;;15.13;59.45;98810.63;5045887;28;20037;-76
2022/04/01 04:29:50;;;;;;;28.70;8.02;;;;;;;15.22;59.68;98819.94;5048719;28;20037;-76
2022/04/01 04:32:27;;;;;;;26.48;7.63;;;;;;;15.05;59.74;98812.75;5057970;28;20052;-75
2022/04/01 04:34:55;;;;;;;22.35;6.40;;;;;;;15.11;60.04;98814.28;5055043;28;20419;-75
2022/04/01 04:37:26;;;;;;;19.20;8.45;;;;;;;15.06;59.98;98808.34;5046949;28;20041;-76
2022/04/01 04:39:52;;;;;;;34.25;8.70;;;;;;;15.02;59.62;98812.03;5052271;28;20460;-75
2022/04/01 04:42:18;;;;;;;27.73;7.63;;;;;;;15.09;59.78;98813.47;5047941;28;20036;-77
2022/04/01 04:44:48;;;;;;;34.70;9.00;;;;;;;15.14;59.30;98814.13;5046759;28;20500;-77
2022/04/01 04:47:15;;;;;;;17.17;7.07;;;;;;;15.20;59.23;98821.78;5050480;28;20488;-76
2022/04/01 04:49:42;;;;;;;40.00;9.70;;;;;;;15.47;58.70;98829.41;5047187;28;20037;-75
2022/04/01 04:52:15;;;;;;;44.00;8.85;;;;;;;15.45;58.41;98832.09;5048265;28;20039;-75
2022/04/01 04:54:41;;;;;;;31.88;7.30;;;;;;;15.58;58.35;98822.69;5048023;28;20040;-75
2022/04/01 04:58:00;;;;;;;33.80;7.07;;;;;;;15.50;58.59;98831.88;5048183;28;20042;-76
2022/04/01 05:00:26;;;;;;;25.02;7.10;;;;;;;15.50;58.95;98832.78;5047927;28;20404;-77
2022/04/01 05:03:12;;;;;;;33.25;8.10;;;;;;;15.57;58.54;98813.06;5048442;28;20045;-76
2022/04/01 05:05:40;;;;;;;38.28;9.60;;;;;;;15.30;59.33;98812.50;5033294;28;20056;-76
2022/04/01 05:08:17;;;;;;;26.75;9.00;;;;;;;15.34;59.17;98819.38;5028968;28;20141;-75
2022/04/01 05:10:58;;;;;;;24.83;7.90;;;;;;;15.45;58.71;98829.44;5042019;28;20491;-75
2022/04/01 05:13:35;;;;;;;26.33;7.50;;;;;;;15.76;57.80;98834.25;5057666;28;22873;-75
2022/04/01 05:16:08;;;;;;;38.35;8.60;;;;;;;15.75;57.61;98821.94;5043714;28;20032;-76
2022/04/01 05:19:06;;;;;;;29.17;8.25;;;;;;;15.90;57.41;98838.03;5050979;28;20082;-76
2022/04/01 05:22:15;;;;;;;35.20;10.48;;;;;;;15.90;57.35;98820.38;5017046;28;20125;-75
2022/04/01 05:24:47;;;;;;;43.63;9.00;;;;;;;16.16;56.76;98813.81;5037288;28;20147;-76
2022/04/01 05:27:30;;;;;;;31.73;9.45;;;;;;;15.97;56.68;98803.28;5050445;28;20047;-76
2022/04/01 05:30:12;;;;;;;34.65;9.63;;;;;;;16.22;56.39;98810.88;5044383;28;20543;-77
2022/04/01 05:32:39;;;;;;;42.20;9.38;;;;;;;16.04;56.45;98815.28;5044051;28;20041;-77
2022/04/01 05:35:06;;;;;;;29.60;7.05;;;;;;;16.55;56.04;98819.84;5048744;28;20041;-76
2022/04/01 05:37:33;;;;;;;41.35;10.15;;;;;;;16.59;55.50;98822.28;5046784;28;20037;-76
2022/04/01 05:40:05;;;;;;;34.28;9.20;;;;;;;16.49;54.68;98806.94;5048675;28;20074;-75
2022/04/01 05:43:06;;;;;;;40.95;9.23;;;;;;;16.66;54.52;98810.44;5045142;28;20064;-78
2022/04/01 05:49:25;;;;;;;36.22;10.15;;;;;;;16.59;54.14;98814.34;5048427;28;20047;-78
2022/04/01 05:51:50;;;;;;;41.80;9.95;;;;;;;16.78;53.55;98801.00;5040767;28;20051;-76
2022/04/01 05:54:19;;;;;;;35.53;9.45;;;;;;;17.18;52.66;98806.91;5034296;28;20370;-76
2022/04/01 05:56:46;;;;;;;29.88;9.48;;;;;;;17.11;52.99;98804.66;5043814;28;20540;-77
2022/04/01 05:59:12;;;;;;;40.03;9.85;;;;;;;17.15;52.50;98790.31;5044482;28;20045;-77
2022/04/01 06:01:59;;;;;;;41.80;8.75;;;;;;;17.48;52.04;98790.31;5037602;28;20045;-76
2022/04/01 06:04:55;;;;;;;27.35;9.15;;;;;;;17.30;52.06;98781.53;5031841;28;20044;-76
2022/04/01 06:07:49;;;;;;;26.50;9.07;;;;;;;17.57;51.56;98794.25;5028500;28;20037;-76
2022/04/01 06:10:24;;;;;;;43.00;10.05;;;;;;;17.56;51.24;98788.09;4988076;28;20105;-76
2022/04/01 06:13:26;;;;;;;50.38;11.40;;;;;;;18.05;50.47;98792.47;5034354;28;20548;-76
2022/04/01 06:16:07;;;;;;;38.92;10.82;;;;;;;17.98;50.11;98786.69;4997598;28;20092;-77
2022/04/01 06:18:56;;;;;;;29.65;7.80;;;;;;;17.84;50.42;98783.94;5026899;28;20120;-76
2022/04/01 06:21:25;;;;;;;54.72;11.57;;;;;;;17.62;50.60;98789.56;5028578;28;20040;-77
2022/04/01 06:24:08;;;;;;;46.03;10.88;;;;;;;17.83;50.13;98780.44;5040937;28;20072;-77
2022/04/01 06:27:03;;;;;;;49.83;10.23;;;;;;;17.96;49.64;98785.03;5051061;28;20420;-76
2022/04/01 06:29:35;;;;;;;33.50;9.32;;;;;;;18.21;49.65;98795.13;5024333;28;20041;-77
2022/04/01 06:32:05;;;;;;;46.85;10.68;;;;;;;18.05;49.39;98793.38;5015443;28;20452;-76
2022/04/01 06:38:45;;;;;;;49.45;12.13;;;;;;;17.99;48.82;98806.97;5028141;28;20181;-78
2022/04/01 06:41:19;;;;;;;48.15;10.95;;;;;;;18.22;48.64;98795.03;5025335;28;20055;-78
2022/04/01 06:43:44;;;;;;;46.95;12.07;;;;;;;18.34;48.83;98806.75;5028052;28;20059;-79
2022/04/01 06:46:10;;;;;;;40.00;12.35;;;;;;;18.13;48.33;98790.25;5042847;28;20028;-79
2022/04/01 06:48:36;;;;;;;45.90;12.88;;;;;;;18.23;48.35;98796.75;5034498;28;20088;-79
2022/04/01 06:51:02;;;;;;;59.83;11.35;;;;;;;18.34;48.24;98794.31;5041552;28;20042;-79
2022/04/01 06:53:28;;;;;;;40.63;10.57;;;;;;;18.39;47.73;98788.75;5037795;28;20093;-79
2022/04/01 06:55:53;;;;;;;62.28;13.27;;;;;;;18.35;48.05;98796.06;5040055;28;20042;-78
2022/04/01 06:58:19;;;;;;;57.15;13.23;;;;;;;18.42;47.79;98790.38;5026446;28;20045;-79
2022/04/01 07:00:45;;;;;;;65.88;13.48;;;;;;;18.55;47.10;98794.88;5026290;28;20056;-80
2022/04/01 07:03:11;;;;;;;47.03;11.90;;;;;;;18.57;47.11;98786.84;5022694;28;20049;-80
2022/04/01 07:05:38;;;;;;;63.03;11.85;;;;;;;18.55;47.02;98786.91;5025802;28;20064;-79
2022/04/01 07:08:07;;;;;;;44.63;13.73;;;;;;;18.72;46.97;98785.91;5006734;28;20054;-79
2022/04/01 07:10:33;;;;;;;52.67;13.05;;;;;;;18.53;46.85;98787.94;4989753;28;20489;-80
2022/04/01 07:12:59;;;;;;;51.60;11.40;;;;;;;18.76;46.70;98800.75;5014225;28;20037;-78
2022/04/01 07:15:25;;;;;;;61.17;13.20;;;;;;;18.69;46.32;98778.13;5029122;28;20064;-79
2022/04/01 07:17:51;;;;;;;46.60;12.60;;;;;;;18.91;46.50;98788.34;5022184;28;20060;-79
2022/04/01 07:20:17;;;;;;;49.95;11.55;;;;;;;18.92;46.21;98784.75;5036292;28;20048;-79
2022/04/01 07:22:43;;;;;;;18.63;8.27;;;;;;;20.15;45.02;98773.53;5038200;28;20045;-74
2022/04/01 07:25:12;;;;;;;42.35;13.52;;;;;;;20.85;44.13;98771.47;5007873;28;20092;-73
2022/04/01 07:27:38;;;;;;;49.65;15.60;;;;;;;20.85;43.87;98779.47;5030642;28;20466;-74
2022/04/01 07:30:09;;;;;;;41.17;13.90;;;;;;;20.57;43.06;98784.97;5047494;28;20095;-74
2022/04/01 07:32:36;;;;;;;48.65;14.68;;;;;;;20.81;42.79;98771.78;5046870;28;20114;-73
2022/04/01 07:35:08;;;;;;;48.65;13.93;;;;;;;20.69;42.75;98769.97;5038522;28;20045;-74
2022/04/01 07:37:34;;;;;;;64.30;14.10;;;;;;;21.15;42.35;98780.97;5039504;28;20090;-73
2022/04/01 07:40:01;;;;;;;50.00;10.43;;;;;;;21.13;42.99;98776.72;5034216;28;20041;-72
2022/04/01 07:42:28;;;;;;;42.53;15.38;;;;;;;21.29;42.70;98788.88;5033823;28;20424;-75
2022/04/01 07:44:54;;;;;;;168.43;95.22;;;;;;;20.96;41.71;98786.75;5029464;28;20581;-75
2022/04/01 07:47:21;;;;;;;220.95;153.30;;;;;;;20.96;43.15;98783.22;5038715;28;20509;-76
2022/04/01 07:49:47;;;;;;;152.70;86.05;;;;;;;21.19;42.60;98779.81;5045981;28;20051;-76
2022/04/01 07:52:15;;;;;;;159.45;89.22;;;;;;;21.27;42.32;98773.94;5050707;28;20091;-75
2022/04/01 07:54:58;;;;;;;127.03;63.72;;;;;;;21.36;42.44;98778.63;5015891;28;20447;-75
2022/04/01 07:57:23;;;;;;;145.55;64.93;;;;;;;21.40;42.17;98776.59;5019676;28;20080;-75
2022/04/01 07:59:49;;;;;;;104.75;48.33;;;;;;;21.46;42.21;98782.34;5033803;28;20343;-73
2022/04/01 08:02:16;;;;;;;93.07;39.67;;;;;;;21.46;42.12;98773.50;5036687;28;20374;-74
2022/04/01 08:05:08;;;;;;;79.00;36.25;;;;;;;21.46;41.86;98763.69;5033568;28;20037;-74
2022/04/01 08:08:23;;;;;;;89.15;28.77;;;;;;;21.35;41.05;98765.38;5037807;28;20037;-74
2022/04/01 08:11:13;;;;;;;62.58;22.48;;;;;;;21.53;41.51;98766.75;5062753;28;20051;-74
2022/04/01 08:13:38;;;;;;;66.57;15.82;;;;;;;21.33;41.34;98764.63;5035756;28;20049;-74
2022/04/01 08:16:04;;;;;;;51.63;16.00;;;;;;;21.34;41.60;98764.53;5036309;28;20028;-76
2022/04/01 08:18:30;;;;;;;66.95;17.92;;;;;;;21.41;41.23;98773.00;5023488;28;20120;-75
2022/04/01 08:20:55;;;;;;;49.03;14.55;;;;;;;21.40;41.01;98761.47;5038863;28;20045;-75
2022/04/01 08:23:21;;;;;;;51.47;14.57;;;;;;;21.44;40.89;98757.59;5029219;28;20041;-73
2022/04/01 08:25:47;;;;;;;51.10;14.02;;;;;;;21.37;40.79;98753.63;5027610;28;20042;-74
2022/04/01 08:28:13;;;;;;;43.35;14.32;;;;;;;21.38;40.79;98759.84;5029694;28;20080;-75
2022/04/01 08:30:40;;;;;;;50.35;14.40;;;;;;;21.57;40.54;98760.25;5034112;28;20036;-75
2022/04/01 08:33:07;;;;;;;71.13;15.05;;;;;;;21.58;40.30;98764.63;5036490;28;20461;-75
2022/04/01 08:35:33;;;;;;;45.78;12.05;;;;;;;21.45;40.82;98761.97;5030070;28;20060;-72
2022/04/01 08:38:01;;;;;;;50.90;11.80;;;;;;;21.61;40.62;98764.41;5033815;28;20048;-74
2022/04/01 08:40:29;;;;;;;47.05;12.70;;;;;;;21.65;39.48;98757.03;5035416;28;20112;-73
2022/04/01 08:42:55;;;;;;;60.60;12.32;;;;;;;21.74;40.10;98752.84;5048265;28;20021;-73
2022/04/01 08:45:20;;;;;;;53.90;14.18;;;;;;;21.82;40.13;98742.44;5044469;28;20036;-72
2022/04/01 08:47:48;;;;;;;52.53;14.30;;;;;;;21.87;39.91;98734.97;5033584;28;20504;-73
2022/04/01 08:50:13;;;;;;;64.55;12.32;;;;;;;21.81;40.00;98732.72;5026420;28;20121;-71
2022/04/01 08:52:40;;;;;;;42.83;12.38;;;;;;;21.92;39.81;98730.97;5015533;28;20034;-72
2022/04/01 08:55:08;;;;;;;58.97;12.00;;;;;;;21.82;39.53;98700.59;5027943;28;20483;-73
2022/04/01 08:57:42;;;;;;;63.03;14.02;;;;;;;21.84;40.21;98703.97;5014896;28;20020;-73
2022/04/01 09:00:13;;;;;;;44.80;14.23;;;;;;;21.84;40.06;98705.78;5038884;28;20064;-73
2022/04/01 09:02:42;;;;;;;61.40;14.75;;;;;;;21.91;39.65;98707.03;5027081;28;20444;-74
2022/04/01 09:08:43;;;;;;;56.53;13.25;;;;;;;21.75;40.20;98683.31;5046956;28;20538;-75
2022/04/01 09:11:12;;;;;;;60.85;14.88;;;;;;;21.83;39.99;98690.75;5029770;28;20037;-74
2022/04/01 09:13:43;;;;;;;42.15;12.50;;;;;;;21.88;39.78;98700.13;5015368;28;20037;-73
2022/04/01 09:16:41;;;;;;;64.40;13.18;;;;;;;22.02;39.68;98691.06;5013215;28;20029;-74
2022/04/01 09:19:47;;;;;;;42.25;14.48;;;;;;;21.90;40.05;98684.84;5011486;28;20037;-74
2022/04/01 09:22:25;;;;;;;59.30;14.18;;;;;;;22.03;40.02;98681.25;5015429;28;20132;-74
2022/04/01 09:25:02;;;;;;;59.75;14.13;;;;;;;22.12;39.42;98685.88;5013432;28;20112;-74
2022/04/01 09:28:18;;;;;;;45.35;12.07;;;;;;;22.21;39.65;98682.56;5048414;28;20061;-74
2022/04/01 09:30:44;;;;;;;59.55;14.75;;;;;;;22.13;39.63;98680.44;5040999;28;20052;-74
2022/04/01 09:33:10;;;;;;;43.03;14.68;;;;;;;22.06;39.44;98662.34;5034735;28;20511;-72
2022/04/01 09:35:36;;;;;;;58.85;13.73;;;;;;;22.13;39.31;98660.91;5031706;28;20041;-74
2022/04/01 09:38:43;;;;;;;49.13;13.27;;;;;;;22.14;39.40;98665.25;5037465;28;20056;-73
2022/04/01 09:41:19;;;;;;;65.25;13.98;;;;;;;22.27;39.08;98658.06;5026733;28;20090;-73
2022/04/01 09:43:44;;;;;;;47.80;14.32;;;;;;;22.44;38.83;98650.56;5034097;28;20041;-75
2022/04/01 09:46:25;;;;;;;59.08;13.70;;;;;;;22.30;38.99;98660.47;5025470;28;20040;-73
2022/04/01 09:48:58;;;;;;;54.97;13.45;;;;;;;22.51;38.87;98665.16;5029925;28;20029;-74
2022/04/01 09:51:28;;;;;;;51.80;12.35;;;;;;;22.43;38.86;98651.50;5045343;28;20048;-74
2022/04/01 09:53:57;;;;;;;50.78;14.77;;;;;;;22.32;39.28;98655.03;5066050;28;20051;-73
2022/04/01 09:56:43;;;;;;;64.88;14.25;;;;;;;22.42;38.83;98656.00;5052611;28;20032;-76
2022/04/01 10:02:31;;;;;;;67.75;14.38;;;;;;;22.67;38.22;98632.72;5047911;28;20492;-76
2022/04/01 10:04:58;;;;;;;52.65;14.10;;;;;;;22.61;39.40;98642.06;5048355;28;20040;-76
2022/04/01 10:07:25;;;;;;;62.22;13.45;;;;;;;22.47;39.61;98635.13;5063497;28;20067;-74
2022/04/01 10:09:53;;;;;;;59.88;14.93;;;;;;;22.39;39.35;98631.38;5061742;28;20020;-75
2022/04/01 10:12:23;;;;;;;60.72;13.80;;;;;;;22.57;38.63;98637.06;5061182;28;20040;-74
2022/04/01 10:14:54;;;;;;;73.07;16.52;;;;;;;23.16;37.38;98634.22;5062420;28;20390;-77
2022/04/01 10:17:43;;;;;;;64.22;16.42;;;;;;;23.86;35.95;98629.41;5054410;28;20119;-78
2022/04/01 10:20:12;;;;;;;66.15;16.63;;;;;;;23.98;35.24;98609.66;5043906;28;20033;-77
2022/04/01 10:22:41;;;;;;;46.10;13.10;;;;;;;24.17;33.86;98617.81;5043479;28;20186;-78
2022/04/01 10:25:19;;;;;;;72.25;15.10;;;;;;;24.08;33.80;98623.13;5045816;28;20101;-76
2022/04/01 10:27:50;;;;;;;51.78;15.43;;;;;;;24.40;33.52;98597.09;5041323;28;20024;-77
2022/04/01 10:30:18;;;;;;;75.03;17.25;;;;;;;24.46;33.46;98598.38;5042838;28;20059;-78
2022/04/01 10:32:47;;;;;;;47.15;14.05;;;;;;;24.56;33.62;98593.97;5045215;28;20036;-78
2022/04/01 10:35:24;;;;;;;71.10;15.55;;;;;;;24.73;32.34;98595.16;5046736;28;20033;-80
2022/04/01 10:38:05;;;;;;;65.63;15.90;;;;;;;24.96;32.92;98586.88;5044697;28;20033;-77
2022/04/01 10:40:32;;;;;;;68.32;15.95;;;;;;;25.08;32.05;98587.66;5046607;28;20064;-79
2022/04/01 10:43:13;;;;;;;74.03;15.77;;;;;;;24.84;31.87;98570.03;5045163;28;20465;-78
2022/04/01 10:45:40;;;;;;;82.70;17.15;;;;;;;25.53;31.19;98585.34;5045449;28;20067;-79
2022/04/01 10:51:37;;;;;;;59.88;16.13;;;;;;;25.75;30.36;98556.50;5041762;28;20389;-78
2022/04/01 10:54:16;;;;;;;60.47;14.88;;;;;;;25.60;30.22;98534.63;5039878;28;20488;-79
2022/04/01 10:56:54;;;;;;;62.75;14.20;;;;;;;25.59;30.22;98540.97;5040835;28;20040;-80
2022/04/01 10:59:25;;;;;;;60.28;13.63;;;;;;;25.72;30.15;98538.84;5041550;28;20037;-76
2022/04/01 11:01:53;;;;;;;42.95;14.05;;;;;;;25.88;29.27;98541.84;5044482;28;20079;-78
2022/04/01 11:04:19;;;;;;;66.28;15.05;;;;;;;25.87;29.58;98534.78;5043734;28;20083;-80
2022/04/01 11:07:03;;;;;;;81.00;14.77;;;;;;;25.81;29.45;98546.06;5043988;28;20029;-79
2022/04/01 11:09:47;;;;;;;84.88;16.27;;;;;;;26.47;29.22;98536.31;5062154;28;20043;-77
2022/04/01 11:12:16;;;;;;;67.25;13.77;;;;;;;26.61;28.52;98532.31;5064249;28;20051;-79
2022/04/01 11:14:53;;;;;;;67.70;13.68;;;;;;;27.10;29.14;98524.81;5060772;28;20037;-79
2022/04/01 11:17:19;;;;;;;76.05;15.50;;;;;;;26.04;28.23;98518.91;5064549;28;20051;-78
2022/04/01 11:20:06;;;;;;;65.78;14.65;;;;;;;25.44;29.16;98513.69;5063475;28;20053;-77
2022/04/01 11:22:36;;;;;;;57.47;14.85;;;;;;;25.84;29.72;98518.88;5060567;28;20037;-78
2022/04/01 11:25:02;;;;;;;56.45;12.18;;;;;;;25.82;28.58;98507.44;5062908;28;20040;-78
2022/04/01 11:27:28;;;;;;;68.35;15.32;;;;;;;25.76;28.76;98502.66;5059610;28;20025;-78
2022/04/01 11:30:09;;;;;;;75.28;13.88;;;;;;;25.84;28.93;98483.09;5064850;28;20586;-78
2022/04/01 11:32:37;;;;;;;57.90;15.75;;;;;;;26.19;28.67;98490.53;5067068;28;20143;-79
2022/04/01 11:35:04;;;;;;;82.32;15.45;;;;;;;26.65;28.12;98494.22;5063089;28;20037;-78
2022/04/01 11:37:45;;;;;;;88.18;17.00;;;;;;;25.71;28.29;98480.75;5067950;28;20071;-77
2022/04/01 11:40:15;;;;;;;69.00;15.13;;;;;;;25.36;28.56;98473.28;5057929;28;20472;-75
2022/04/01 11:42:59;;;;;;;64.68;17.02;;;;;;;25.62;28.63;98463.63;5064362;28;20066;-78
2022/04/01 11:45:26;;;;;;;59.38;14.52;;;;;;;25.86;28.29;98459.63;5044266;28;20071;-79
2022/04/01 11:47:52;;;;;;;58.28;13.98;;;;;;;25.80;28.05;98450.31;5052395;28;20128;-78
2022/04/01 11:50:20;;;;;;;61.72;13.25;;;;;;;25.99;28.18;98468.25;5061516;28;20560;-78
2022/04/01 11:52:52;;;;;;;55.88;13.48;;;;;;;25.01;29.08;98453.16;5043178;28;20462;-78
2022/04/01 11:55:19;;;;;;;96.10;19.05;;;;;;;25.11;29.01;98451.34;5033653;28;20033;-76
2022/04/01 11:57:45;;;;;;;79.72;17.08;;;;;;;25.53;28.24;98437.63;5028956;28;20055;-78
2022/04/01 12:00:19;;;;;;;77.47;14.80;;;;;;;25.39;28.69;98432.72;5032694;28;20037;-78
2022/04/01 12:02:48;;;;;;;79.78;15.88;;;;;;;25.53;28.52;98434.94;5031780;28;20040;-78
2022/04/01 12:05:14;;;;;;;73.82;16.33;;;;;;;25.58;29.33;98421.09;5024592;28;20442;-79
2022/04/01 12:10:28;;;;;;;64.15;15.48;;;;;;;25.60;30.33;98403.00;5034447;28;20068;-78
2022/04/01 12:13:09;;;;;;;58.55;13.95;;;;;;;25.76;30.08;98413.97;5026234;28;20053;-78
2022/04/01 12:15:40;;;;;;;53.42;14.48;;;;;;;25.59;30.24;98409.34;5021605;28;20021;-78
2022/04/01 12:18:07;;;;;;;55.58;12.50;;;;;;;25.40;30.59;98400.34;5030560;28;20423;-78
2022/04/01 12:20:43;;;;;;;62.10;13.13;;;;;;;25.24;30.70;98427.78;5038760;28;20127;-79
2022/04/01 12:23:08;;;;;;;46.67;13.32;;;;;;;25.34;30.36;98410.81;5004981;28;20064;-78
2022/04/01 12:25:37;;;;;;;66.88;13.20;;;;;;;25.41;30.25;98410.09;5021762;28;20109;-79
2022/04/01 12:28:05;;;;;;;73.22;15.48;;;;;;;25.26;30.35;98414.19;5027709;28;20084;-79
2022/04/01 12:30:41;;;;;;;58.72;13.98;;;;;;;25.08;30.58;98419.41;5030177;28;20014;-79
2022/04/01 12:33:20;;;;;;;63.30;11.43;;;;;;;24.70;31.22;98406.81;5009525;28;20442;-79
2022/04/01 12:35:54;;;;;;;57.58;14.52;;;;;;;24.67;31.65;98417.81;5015313;28;20120;-77
2022/04/01 12:38:20;;;;;;;74.78;14.70;;;;;;;24.15;32.26;98405.38;5035038;28;20037;-78
2022/04/01 12:40:45;;;;;;;66.22;14.10;;;;;;;24.21;32.44;98418.25;5008528;28;20088;-78
2022/04/01 12:43:40;;;;;;;56.05;13.68;;;;;;;24.41;32.04;98442.41;5030872;28;20050;-79
2022/04/01 12:46:13;;;;;;;63.33;12.57;;;;;;;24.46;31.61;98477.72;5019713;28;20116;-77
2022/04/01 12:49:00;;;;;;;130.57;18.83;;;;;;;23.38;37.49;98523.56;5053729;28;20025;-77